Time,TemperatureF,DewpointF,PressureIn,WindDirection,WindDirectionDegrees,WindSpeedMPH,WindSpeedGustMPH,Humidity,HourlyPrecipIn,Conditions,Clouds,dailyrainin,SoftwareType,DateUTC
2013-11-17 00:03:00,47.3,30.1,29.26,SSW,203,0.0,0.0,51,0.00,,,0.00,WSDL version 420,2013-11-17 05:03:00,
2013-11-17 00:05:00,47.3,30.1,29.26,SSW,203,0.0,0.0,51,0.00,,,0.00,WSDL version 420,2013-11-17 05:05:00,
2013-11-17 00:07:00,47.2,30.0,29.26,SSW,203,0.0,0.0,51,0.00,,,0.00,WSDL version 420,2013-11-17 05:07:00,
2013-11-17 00:14:00,46.9,30.2,29.26,SSW,203,0.0,0.0,52,0.00,,,0.00,WSDL version 420,2013-11-17 05:14:00,
2013-11-17 00:22:00,46.8,30.1,-100.00,SSW,203,0.0,0.0,52,0.00,,,0.00,WSDL version 420,2013-11-17 05:22:00,
2013-11-17 00:28:00,46.8,30.1,29.23,SSE,158,0.0,0.0,52,-99.99,,,-99.99,WSDL version 420,2013-11-17 05:28:00,
2013-11-17 00:34:00,46.8,30.4,29.23,SSW,203,0.0,0.0,53,0.00,,,0.00,WSDL version 420,2013-11-17 05:34:00,
2013-11-17 00:41:00,46.8,31.0,29.23,SSW,203,0.0,0.0,54,0.00,,,0.00,WSDL version 420,2013-11-17 05:41:00,
2013-11-17 00:43:00,46.8,31.0,29.23,SSW,203,0.0,0.0,54,-99.99,,,-99.99,WSDL version 420,2013-11-17 05:43:00,
2013-11-17 00:49:00,46.7,31.2,-100.00,SSW,203,0.0,0.0,54,0.00,,,0.00,WSDL version 420,2013-11-17 05:49:00,
2013-11-17 00:56:00,46.5,30.8,29.23,SSW,203,0.0,0.0,54,0.00,,,0.00,WSDL version 420,2013-11-17 05:56:00,
2013-11-17 01:01:00,46.4,30.7,29.23,SSW,203,0.0,0.0,55,0.00,,,0.00,WSDL version 420,2013-11-17 06:01:00,
2013-11-17 01:08:00,46.1,30.9,29.23,SSW,203,0.0,0.0,55,0.00,,,0.00,WSDL version 420,2013-11-17 06:08:00,
2013-11-17 01:13:00,46.0,30.7,29.23,SSW,203,0.0,0.0,55,0.00,,,0.00,WSDL version 420,2013-11-17 06:13:00,
2013-11-17 01:20:00,45.6,30.4,29.23,SSW,203,0.0,0.0,55,-99.99,,,-99.99,WSDL version 420,2013-11-17 06:20:00,
2013-11-17 01:27:00,45.3,30.3,29.26,South,180,0.0,0.0,56,0.00,,,0.00,WSDL version 420,2013-11-17 06:27:00,
2013-11-17 01:34:00,45.1,30.4,29.26,South,180,0.0,0.0,56,-99.99,,,-99.99,WSDL version 420,2013-11-17 06:34:00,
2013-11-17 01:39:00,44.9,30.1,29.26,South,180,0.0,0.0,56,0.00,,,0.00,WSDL version 420,2013-11-17 06:39:00,
2013-11-17 01:44:00,44.8,30.5,29.26,South,180,0.0,0.0,57,0.00,,,0.00,WSDL version 420,2013-11-17 06:44:00,
2013-11-17 01:50:00,44.6,30.3,-100.00,South,180,0.0,0.0,57,0.00,,,0.00,WSDL version 420,2013-11-17 06:50:00,
2013-11-17 01:56:00,44.2,30.0,29.26,South,180,0.0,0.0,57,0.00,,,0.00,WSDL version 420,2013-11-17 06:56:00,
2013-11-17 02:02:00,44.2,30.3,29.26,SSE,158,0.0,0.0,57,0.00,,,0.00,WSDL version 420,2013-11-17 07:02:00,
2013-11-17 02:08:00,44.2,30.6,29.26,SSE,158,0.0,0.0,59,0.00,,,0.00,WSDL version 420,2013-11-17 07:08:00,
2013-11-17 02:13:00,44.2,30.8,-100.00,SW,218,0.0,0.0,59,0.00,,,0.00,WSDL version 420,2013-11-17 07:13:00,
2013-11-17 02:21:00,44.4,31.8,29.26,SSW,203,0.0,0.0,61,0.00,,,0.00,WSDL version 420,2013-11-17 07:21:00,
2013-11-17 02:28:00,44.5,31.8,29.26,SSW,203,0.0,0.0,61,0.00,,,0.00,WSDL version 420,2013-11-17 07:28:00,
2013-11-17 02:36:00,44.8,33.4,29.26,SSW,203,0.0,0.0,64,0.00,,,0.00,WSDL version 420,2013-11-17 07:36:00,
2013-11-17 02:42:00,44.8,32.8,29.26,SSW,203,0.0,0.0,62,0.00,,,0.00,WSDL version 420,2013-11-17 07:42:00,
2013-11-17 02:47:00,45.6,35.5,-100.00,SSW,203,0.0,0.0,67,0.00,,,0.00,WSDL version 420,2013-11-17 07:47:00,
2013-11-17 02:57:00,46.0,34.8,-100.00,South,180,0.0,0.0,64,0.00,,,0.00,WSDL version 420,2013-11-17 07:57:00,
2013-11-17 03:02:00,46.0,34.6,-100.00,South,180,0.0,0.0,64,0.00,,,0.00,WSDL version 420,2013-11-17 08:02:00,
2013-11-17 03:08:00,46.5,35.6,29.26,SW,217,0.0,0.0,67,0.00,,,0.00,WSDL version 420,2013-11-17 08:08:00,
2013-11-17 03:14:00,47.5,37.7,29.26,South,188,0.0,0.0,70,0.00,,,0.00,WSDL version 420,2013-11-17 08:14:00,
2013-11-17 03:19:00,48.6,38.9,-100.00,SSW,203,0.0,0.0,69,0.00,,,0.00,WSDL version 420,2013-11-17 08:19:00,
2013-11-17 03:27:00,49.3,40.2,-100.00,SSW,199,0.0,1.1,71,0.00,,,0.00,WSDL version 420,2013-11-17 08:27:00,
2013-11-17 03:32:00,49.3,39.5,29.26,South,180,0.0,2.2,67,0.00,,,0.00,WSDL version 420,2013-11-17 08:32:00,
2013-11-17 03:38:00,49.2,38.5,29.23,SSW,212,0.0,0.0,66,0.00,,,0.00,WSDL version 420,2013-11-17 08:38:00,
2013-11-17 03:43:00,49.2,38.6,29.23,SW,225,0.0,0.0,67,0.00,,,0.00,WSDL version 420,2013-11-17 08:43:00,
2013-11-17 03:49:00,49.8,40.3,29.23,SSW,203,0.0,0.0,70,0.00,,,0.00,WSDL version 420,2013-11-17 08:49:00,
2013-11-17 04:00:00,50.7,41.3,29.23,SSW,203,0.0,1.3,70,0.00,,,0.00,WSDL version 420,2013-11-17 09:00:00,
2013-11-17 04:05:00,50.7,40.9,29.23,WSW,248,0.0,1.3,69,0.00,,,0.00,WSDL version 420,2013-11-17 09:05:00,
2013-11-17 04:14:00,50.9,41.1,29.21,SW,234,0.0,0.0,69,0.00,,,0.00,WSDL version 420,2013-11-17 09:14:00,
2013-11-17 04:20:00,51.1,41.3,29.21,SW,221,0.0,2.9,69,0.00,,,0.00,WSDL version 420,2013-11-17 09:20:00,
2013-11-17 04:26:00,51.3,41.4,29.21,WSW,248,0.0,3.1,68,0.00,,,0.00,WSDL version 420,2013-11-17 09:26:00,
2013-11-17 04:31:00,51.3,41.1,29.21,SW,230,0.0,0.0,68,0.00,,,0.00,WSDL version 420,2013-11-17 09:31:00,
2013-11-17 04:37:00,51.3,41.1,29.21,SSW,209,0.0,0.0,68,-99.99,,,-99.99,WSDL version 420,2013-11-17 09:37:00,
2013-11-17 04:44:00,51.4,41.2,29.21,SW,235,0.0,0.9,68,0.00,,,0.00,WSDL version 420,2013-11-17 09:44:00,
2013-11-17 04:52:00,51.4,41.6,29.18,SSW,199,0.0,0.9,69,0.00,,,0.00,WSDL version 420,2013-11-17 09:52:00,
2013-11-17 04:59:00,51.6,42.2,29.18,SW,236,0.2,1.6,70,0.00,,,0.00,WSDL version 420,2013-11-17 09:59:00,
2013-11-17 05:09:00,51.8,42.0,29.18,SSW,210,0.0,5.4,69,0.00,,,0.00,WSDL version 420,2013-11-17 10:09:00,
2013-11-17 05:16:00,52.0,42.1,29.18,WSW,248,0.0,0.0,69,0.00,,,0.00,WSDL version 420,2013-11-17 10:16:00,
2013-11-17 05:22:00,52.0,42.1,-100.00,SW,218,0.0,3.8,69,0.00,,,0.00,WSDL version 420,2013-11-17 10:22:00,
2013-11-17 05:31:00,52.3,42.9,29.18,WSW,255,0.0,3.8,70,0.00,,,0.00,WSDL version 420,2013-11-17 10:31:00,
2013-11-17 05:41:00,52.3,42.9,-100.00,SW,234,0.0,9.4,70,0.00,,,0.00,WSDL version 420,2013-11-17 10:41:00,
2013-11-17 05:46:00,52.3,43.0,29.18,SW,236,0.0,9.4,70,0.00,,,0.00,WSDL version 420,2013-11-17 10:46:00,
2013-11-17 05:51:00,52.3,43.2,29.15,SSW,206,0.0,3.8,71,0.00,,,0.00,WSDL version 420,2013-11-17 10:51:00,
2013-11-17 05:57:00,52.4,43.3,-100.00,SW,236,0.0,1.1,71,0.00,,,0.00,WSDL version 420,2013-11-17 10:57:00,
2013-11-17 06:03:00,52.5,43.4,29.15,SSW,207,0.0,1.1,71,0.00,,,0.00,WSDL version 420,2013-11-17 11:03:00,
2013-11-17 06:10:00,52.5,43.2,29.15,SW,231,0.0,0.9,71,0.00,,,0.00,WSDL version 420,2013-11-17 11:10:00,
2013-11-17 06:15:00,52.5,43.4,29.15,SSW,203,0.0,0.0,71,0.00,,,0.00,WSDL version 420,2013-11-17 11:15:00,
2013-11-17 06:21:00,52.7,43.6,29.15,SW,236,0.2,6.5,71,0.00,,,0.00,WSDL version 420,2013-11-17 11:21:00,
2013-11-17 06:27:00,52.9,43.5,-100.00,SW,225,0.0,6.5,71,0.00,,,0.00,WSDL version 420,2013-11-17 11:27:00,
2013-11-17 06:34:00,52.9,43.4,29.15,SW,236,0.0,0.0,70,0.00,,,0.00,WSDL version 420,2013-11-17 11:34:00,
2013-11-17 06:41:00,52.9,43.7,-100.00,SW,216,0.0,0.9,71,0.00,,,0.00,WSDL version 420,2013-11-17 11:41:00,
2013-11-17 06:47:00,52.9,43.4,29.15,SW,236,0.0,0.9,70,0.00,,,0.00,WSDL version 420,2013-11-17 11:47:00,
2013-11-17 06:55:00,52.9,43.8,29.15,WSW,239,0.5,2.9,71,0.00,,,0.00,WSDL version 420,2013-11-17 11:55:00,
2013-11-17 07:01:00,53.1,43.8,29.15,WSW,239,0.0,5.4,71,0.00,,,0.00,WSDL version 420,2013-11-17 12:01:00,
2013-11-17 07:07:00,53.1,43.5,29.15,SW,221,0.0,3.4,70,0.00,,,0.00,WSDL version 420,2013-11-17 12:07:00,
2013-11-17 07:12:00,53.1,43.9,-100.00,SW,221,0.0,0.0,71,-99.99,,,-99.99,WSDL version 420,2013-11-17 12:12:00,
2013-11-17 07:20:00,52.9,44.5,-100.00,WSW,240,1.7,4.3,74,0.00,,,0.00,WSDL version 420,2013-11-17 12:20:00,
2013-11-17 07:26:00,52.5,44.3,29.15,WSW,248,0.0,4.3,74,0.00,,,0.00,WSDL version 420,2013-11-17 12:26:00,
2013-11-17 07:32:00,52.3,44.7,-100.00,WSW,239,0.0,0.0,75,0.00,,,0.00,WSDL version 420,2013-11-17 12:32:00,
2013-11-17 07:37:00,52.3,45.0,29.12,SW,235,1.9,3.6,76,0.00,,,0.00,WSDL version 420,2013-11-17 12:37:00,
2013-11-17 07:43:00,52.3,45.0,29.12,WSW,248,0.0,3.6,76,0.00,,,0.00,WSDL version 420,2013-11-17 12:43:00,
2013-11-17 07:48:00,52.3,44.7,29.12,WSW,243,0.0,0.0,75,0.00,,,0.00,WSDL version 420,2013-11-17 12:48:00,
2013-11-17 07:54:00,52.4,44.7,29.15,SW,231,0.0,0.0,75,-99.99,,,-99.99,WSDL version 420,2013-11-17 12:54:00,
2013-11-17 08:02:00,52.7,45.0,-100.00,WSW,255,0.0,0.0,75,0.00,,,0.00,WSDL version 420,2013-11-17 13:02:00,
2013-11-17 08:08:00,52.7,45.0,29.15,SSW,203,0.0,0.9,75,0.00,,,0.00,WSDL version 420,2013-11-17 13:08:00,
2013-11-17 08:15:00,52.9,45.1,-100.00,SW,230,0.7,6.3,75,0.00,,,0.00,WSDL version 420,2013-11-17 13:15:00,
2013-11-17 08:23:00,53.1,45.0,29.15,WSW,248,0.0,6.3,74,0.00,,,0.00,WSDL version 420,2013-11-17 13:23:00,
2013-11-17 09:04:00,52.7,46.4,29.15,WSW,248,0.0,0.0,79,0.00,,,0.00,WSDL version 420,2013-11-17 14:04:00,
2013-11-17 09:15:00,52.7,46.4,29.15,WSW,248,0.0,1.1,79,-99.99,,,-99.99,WSDL version 420,2013-11-17 14:15:00,
2013-11-17 09:29:00,52.5,47.3,29.15,SW,230,0.0,0.0,82,0.00,,,0.00,WSDL version 420,2013-11-17 14:29:00,
2013-11-17 09:35:00,52.3,47.1,29.15,SW,218,0.4,3.8,82,0.00,,,0.00,WSDL version 420,2013-11-17 14:35:00,
2013-11-17 10:15:00,52.2,48.3,29.12,SW,219,0.0,0.0,87,0.00,,,0.00,WSDL version 420,2013-11-17 15:15:00,
2013-11-17 10:28:00,52.2,48.7,29.15,SW,235,0.0,0.0,88,0.00,,,0.00,WSDL version 420,2013-11-17 15:28:00,
2013-11-17 10:38:00,52.3,49.2,29.15,North,-999,-999.0,-999.0,89,-99.99,,,-99.99,WSDL version 420,2013-11-17 15:38:00,
2013-11-17 10:48:00,52.7,49.5,29.15,WSW,239,0.0,0.0,89,-99.99,,,-99.99,WSDL version 420,2013-11-17 15:48:00,
2013-11-17 10:54:00,52.8,49.7,29.12,SW,236,0.0,0.0,89,0.00,,,0.00,WSDL version 420,2013-11-17 15:54:00,
2013-11-17 11:04:00,53.2,50.1,-100.00,SW,236,0.0,0.0,89,-99.99,,,-99.99,WSDL version 420,2013-11-17 16:04:00,
2013-11-17 11:12:00,53.4,50.2,29.12,WSW,239,0.0,0.0,89,-99.99,,,-99.99,WSDL version 420,2013-11-17 16:12:00,
2013-11-17 11:18:00,53.5,50.2,29.12,WSW,251,0.0,0.0,88,-99.99,,,-99.99,WSDL version 420,2013-11-17 16:18:00,
2013-11-17 11:24:00,53.6,50.1,29.12,WSW,240,0.0,0.9,88,0.00,,,0.00,WSDL version 420,2013-11-17 16:24:00,
2013-11-17 11:30:00,53.5,49.7,29.12,WSW,248,0.0,0.0,87,0.00,,,0.00,WSDL version 420,2013-11-17 16:30:00,
2013-11-17 11:38:00,53.6,49.6,29.09,WSW,238,0.0,0.9,86,0.00,,,0.00,WSDL version 420,2013-11-17 16:38:00,
2013-11-17 11:44:00,53.6,49.4,29.09,WSW,244,0.0,0.0,86,0.00,,,0.00,WSDL version 420,2013-11-17 16:44:00,
2013-11-17 11:50:00,53.6,49.4,29.09,SW,222,0.0,0.0,86,0.00,,,0.00,WSDL version 420,2013-11-17 16:50:00,
2013-11-17 11:57:00,53.8,49.6,29.09,West,261,0.0,0.0,86,0.00,,,0.00,WSDL version 420,2013-11-17 16:57:00,
2013-11-17 12:04:00,53.9,49.6,29.09,WSW,243,0.0,0.0,86,-99.99,,,-99.99,WSDL version 420,2013-11-17 17:04:00,
2013-11-17 12:10:00,54.0,49.7,29.09,SSW,203,0.0,0.9,86,-99.99,,,-99.99,WSDL version 420,2013-11-17 17:10:00,
2013-11-17 12:19:00,54.0,49.4,29.09,WSW,238,0.0,0.0,84,-99.99,,,-99.99,WSDL version 420,2013-11-17 17:19:00,
2013-11-17 12:25:00,54.2,49.6,29.09,SW,231,0.0,0.9,84,0.00,,,0.00,WSDL version 420,2013-11-17 17:25:00,
2013-11-17 12:31:00,54.5,49.9,29.09,SW,222,0.0,1.6,84,0.00,,,0.00,WSDL version 420,2013-11-17 17:31:00,
2013-11-17 12:37:00,54.9,50.3,29.06,WSW,248,0.0,1.6,84,0.00,,,0.00,WSDL version 420,2013-11-17 17:37:00,
2013-11-17 12:43:00,55.2,50.1,29.06,WSW,244,0.0,1.3,82,-99.99,,,-99.99,WSDL version 420,2013-11-17 17:43:00,
2013-11-17 12:49:00,55.4,49.7,29.06,WSW,257,0.0,0.9,81,0.00,,,0.00,WSDL version 420,2013-11-17 17:49:00,
2013-11-17 12:58:00,55.6,49.5,29.09,WSW,251,0.0,2.2,80,0.00,,,0.00,WSDL version 420,2013-11-17 17:58:00,
2013-11-17 13:04:00,55.6,49.3,29.09,WSW,248,0.0,2.2,79,-99.99,,,-99.99,WSDL version 420,2013-11-17 18:04:00,
2013-11-17 13:10:00,55.7,49.3,29.09,SW,231,0.0,0.0,79,-99.99,,,-99.99,WSDL version 420,2013-11-17 18:10:00,
2013-11-17 13:17:00,55.9,49.5,29.09,SW,236,0.0,0.0,79,-99.99,,,-99.99,WSDL version 420,2013-11-17 18:17:00,
2013-11-17 13:22:00,56.2,49.6,29.06,SW,222,0.0,0.0,78,0.00,,,0.00,WSDL version 420,2013-11-17 18:22:00,
2013-11-17 13:28:00,56.5,49.4,29.06,SW,236,0.0,0.9,77,-99.99,,,-99.99,WSDL version 420,2013-11-17 18:28:00,
2013-11-17 13:34:00,56.8,49.6,29.06,SW,228,0.0,0.9,76,0.00,,,0.00,WSDL version 420,2013-11-17 18:34:00,
2013-11-17 13:40:00,57.2,49.0,29.03,SW,233,0.0,0.9,74,-99.99,,,-99.99,WSDL version 420,2013-11-17 18:40:00,
2013-11-17 13:46:00,57.6,49.1,29.03,SW,221,2.1,6.0,73,0.00,,,0.00,WSDL version 420,2013-11-17 18:46:00,
2013-11-17 13:52:00,57.9,49.0,29.03,WSW,248,3.0,6.0,72,-99.99,,,-99.99,WSDL version 420,2013-11-17 18:52:00,
2013-11-17 14:02:00,58.1,48.4,29.03,SW,234,2.1,3.8,70,0.00,,,0.00,WSDL version 420,2013-11-17 19:02:00,
2013-11-17 14:08:00,57.9,48.3,29.00,SW,227,2.3,6.3,70,0.00,,,0.00,WSDL version 420,2013-11-17 19:08:00,
2013-11-17 14:14:00,57.9,48.0,29.00,WSW,255,3.0,6.5,70,0.00,,,0.00,WSDL version 420,2013-11-17 19:14:00,
2013-11-17 14:20:00,57.7,47.7,29.00,SW,218,3.7,7.4,69,0.00,,,0.00,WSDL version 420,2013-11-17 19:20:00,
2013-11-17 14:28:00,57.4,47.7,-100.00,South,169,2.2,3.6,70,0.00,,,0.00,WSDL version 420,2013-11-17 19:28:00,
2013-11-17 14:44:00,57.4,47.7,29.03,West,270,2.7,4.7,70,0.00,,,0.00,WSDL version 420,2013-11-17 19:44:00,
2013-11-17 14:50:00,57.6,47.9,29.03,WSW,257,3.0,4.7,70,-99.99,,,-99.99,WSDL version 420,2013-11-17 19:50:00,
2013-11-17 14:56:00,57.5,47.8,29.03,SSW,203,2.6,4.7,70,0.00,,,0.00,WSDL version 420,2013-11-17 19:56:00,
2013-11-17 15:02:00,57.3,47.6,29.03,WSW,248,2.5,4.5,70,0.00,,,0.00,WSDL version 420,2013-11-17 20:02:00,
2013-11-17 15:08:00,57.1,47.6,29.00,West,264,2.0,4.5,71,-99.99,,,-99.99,WSDL version 420,2013-11-17 20:08:00,
2013-11-17 15:36:00,57.2,48.3,29.00,SSW,203,3.4,4.7,72,-99.99,,,-99.99,WSDL version 420,2013-11-17 20:36:00,
2013-11-17 15:45:00,57.4,48.4,29.00,WSW,248,2.2,4.9,72,0.00,,,0.00,WSDL version 420,2013-11-17 20:45:00,
2013-11-17 15:52:00,57.4,48.1,-100.00,WSW,248,1.6,4.9,71,0.00,,,0.00,WSDL version 420,2013-11-17 20:52:00,
2013-11-17 15:57:00,57.4,48.1,29.00,WSW,252,3.0,5.4,71,0.00,,,0.00,WSDL version 420,2013-11-17 20:57:00,
2013-11-17 16:04:00,57.4,48.1,-100.00,WSW,248,2.9,5.4,71,0.00,,,0.00,WSDL version 420,2013-11-17 21:04:00,
2013-11-17 16:39:00,57.7,47.9,28.97,SSW,203,2.2,5.8,70,0.00,,,0.00,WSDL version 420,2013-11-17 21:39:00,
2013-11-17 16:46:00,57.6,47.9,28.97,SW,228,3.0,5.8,70,0.00,,,0.00,WSDL version 420,2013-11-17 21:46:00,
2013-11-17 17:00:00,57.7,48.0,28.97,WSW,248,1.6,3.4,70,0.00,,,0.00,WSDL version 420,2013-11-17 22:00:00,
2013-11-17 17:06:00,57.7,48.0,28.97,SW,231,1.9,4.0,70,0.00,,,0.00,WSDL version 420,2013-11-17 22:06:00,
2013-11-17 17:12:00,57.6,47.9,28.97,WSW,240,1.3,4.0,70,0.00,,,0.00,WSDL version 420,2013-11-17 22:12:00,
2013-11-17 17:18:00,57.6,48.2,-100.00,SSW,203,2.6,5.4,71,0.00,,,0.00,WSDL version 420,2013-11-17 22:18:00,
2013-11-17 17:23:00,57.6,48.2,28.97,WSW,248,2.0,4.7,71,0.00,,,0.00,WSDL version 420,2013-11-17 22:23:00,
2013-11-17 17:29:00,57.6,48.2,28.97,North,-999,-999.0,-999.0,71,-99.99,,,-99.99,WSDL version 420,2013-11-17 22:29:00,
2013-11-17 17:35:00,57.7,48.4,28.97,WSW,248,2.0,2.2,71,-99.99,,,-99.99,WSDL version 420,2013-11-17 22:35:00,
2013-11-17 17:41:00,57.8,48.5,28.94,SW,218,2.4,4.0,71,-99.99,,,-99.99,WSDL version 420,2013-11-17 22:41:00,
2013-11-17 17:46:00,57.9,48.6,28.94,SW,217,2.6,5.8,71,0.00,,,0.00,WSDL version 420,2013-11-17 22:46:00,
2013-11-17 17:52:00,58.0,48.7,28.94,SW,230,2.6,5.8,71,0.00,,,0.00,WSDL version 420,2013-11-17 22:52:00,
2013-11-17 18:00:00,58.1,48.8,-100.00,North,-999,-999.0,-999.0,71,-99.99,,,-99.99,WSDL version 420,2013-11-17 23:00:00,
2013-11-17 18:06:00,57.9,48.6,28.94,SW,229,2.5,3.8,71,0.00,,,0.00,WSDL version 420,2013-11-17 23:06:00,
2013-11-17 18:12:00,57.9,48.6,-100.00,SSW,210,3.1,6.3,71,0.00,,,0.00,WSDL version 420,2013-11-17 23:12:00,
2013-11-17 18:17:00,57.9,48.7,28.91,SW,222,3.5,6.3,72,0.00,,,0.00,WSDL version 420,2013-11-17 23:17:00,
2013-11-17 18:23:00,57.9,49.0,28.91,SSW,207,2.7,5.4,72,0.00,,,0.00,WSDL version 420,2013-11-17 23:23:00,
2013-11-17 18:29:00,57.7,48.8,28.91,SW,236,1.7,4.9,72,-99.99,,,-99.99,WSDL version 420,2013-11-17 23:29:00,
2013-11-17 18:35:00,57.6,48.7,28.91,SSW,198,3.0,4.7,72,0.00,,,0.00,WSDL version 420,2013-11-17 23:35:00,
2013-11-17 18:41:00,57.4,48.7,28.91,South,173,2.7,4.3,73,0.00,,,0.00,WSDL version 420,2013-11-17 23:41:00,
2013-11-17 18:47:00,57.4,48.8,28.91,SSW,206,1.8,4.3,73,0.00,,,0.00,WSDL version 420,2013-11-17 23:47:00,
2013-11-17 18:53:00,57.4,49.2,28.88,SSW,203,2.4,3.8,74,0.00,,,0.00,WSDL version 420,2013-11-17 23:53:00,
2013-11-17 18:59:00,57.6,49.3,28.88,SSW,203,3.2,5.4,74,0.00,,,0.00,WSDL version 420,2013-11-17 23:59:00,
2013-11-17 19:08:00,57.7,49.5,28.85,West,279,3.2,6.0,74,0.00,,,0.00,WSDL version 420,2013-11-18 00:08:00,
2013-11-17 19:14:00,57.7,49.6,28.85,SW,218,4.7,6.7,75,-99.99,,,-99.99,WSDL version 420,2013-11-18 00:14:00,
2013-11-17 19:20:00,57.7,49.6,28.85,South,189,2.6,6.7,75,0.00,,,0.00,WSDL version 420,2013-11-18 00:20:00,
2013-11-17 19:27:00,57.6,49.7,28.82,South,191,2.1,5.4,75,0.00,,,0.00,WSDL version 420,2013-11-18 00:27:00,
2013-11-17 19:34:00,57.5,49.8,28.82,SW,216,1.8,4.9,75,0.00,,,0.00,WSDL version 420,2013-11-18 00:34:00,
2013-11-17 19:40:00,57.4,49.9,28.85,SW,216,3.2,4.9,76,0.00,,,0.00,WSDL version 420,2013-11-18 00:40:00,
2013-11-17 19:46:00,57.2,49.7,28.85,SSW,207,3.4,5.4,76,0.00,,,0.00,WSDL version 420,2013-11-18 00:46:00,
2013-11-17 19:52:00,57.2,49.8,28.82,SSW,207,1.7,5.4,76,0.00,,,0.00,WSDL version 420,2013-11-18 00:52:00,
2013-11-17 19:59:00,57.4,50.2,-100.00,SW,222,2.0,10.1,77,0.00,,,0.00,WSDL version 420,2013-11-18 00:59:00,
2013-11-17 20:05:00,57.5,50.3,28.82,SW,218,2.3,5.6,77,-99.99,,,-99.99,WSDL version 420,2013-11-18 01:05:00,
2013-11-17 20:10:00,57.9,50.7,28.82,SW,230,2.5,5.6,77,0.00,,,0.00,WSDL version 420,2013-11-18 01:10:00,
2013-11-17 20:18:00,58.1,50.6,28.82,WSW,248,2.6,3.8,76,0.00,,,0.00,WSDL version 420,2013-11-18 01:18:00,
2013-11-17 20:23:00,58.3,50.4,28.79,SW,219,2.2,4.7,75,0.00,,,0.00,WSDL version 420,2013-11-18 01:23:00,
2013-11-17 20:30:00,58.5,50.4,28.79,SSW,207,2.6,5.8,74,0.00,,,0.00,WSDL version 420,2013-11-18 01:30:00,
2013-11-17 20:36:00,58.6,50.3,-100.00,WSW,238,3.5,4.7,74,0.00,,,0.00,WSDL version 420,2013-11-18 01:36:00,
2013-11-17 20:43:00,58.8,50.2,-100.00,SSW,195,3.8,5.8,73,0.00,,,0.00,WSDL version 420,2013-11-18 01:43:00,
2013-11-17 20:49:00,58.8,50.2,28.82,SW,219,3.3,7.4,73,-99.99,,,-99.99,WSDL version 420,2013-11-18 01:49:00,
2013-11-17 20:56:00,58.8,50.4,28.76,WSW,240,3.4,7.4,74,0.00,,,0.00,WSDL version 420,2013-11-18 01:56:00,
2013-11-17 21:02:00,58.3,50.8,28.76,SW,233,2.2,6.0,76,0.00,,,0.00,WSDL version 420,2013-11-18 02:02:00,
2013-11-17 21:12:00,57.9,51.5,-100.00,WSW,243,3.1,5.6,79,0.00,,,0.00,WSDL version 420,2013-11-18 02:12:00,
2013-11-17 21:18:00,57.7,51.6,28.76,SSW,212,2.5,4.9,80,0.00,,,0.00,WSDL version 420,2013-11-18 02:18:00,
2013-11-17 21:24:00,57.6,51.8,28.73,SSW,207,1.7,3.8,81,0.00,,,0.00,WSDL version 420,2013-11-18 02:24:00,
2013-11-17 21:32:00,57.6,51.8,28.73,WSW,239,3.0,3.8,81,-99.99,,,-99.99,WSDL version 420,2013-11-18 02:32:00,
2013-11-17 21:39:00,57.6,52.2,28.73,SSW,208,2.9,6.0,82,-99.99,,,-99.99,WSDL version 420,2013-11-18 02:39:00,
2013-11-17 21:51:00,57.9,51.8,-100.00,SSW,197,3.9,8.5,80,0.00,,,0.00,WSDL version 420,2013-11-18 02:51:00,
2013-11-17 21:57:00,57.9,51.8,28.73,SSW,203,2.3,6.3,80,0.00,,,0.00,WSDL version 420,2013-11-18 02:57:00,
2013-11-17 22:03:00,57.9,51.7,-100.00,WSW,240,3.5,6.0,79,0.00,,,0.00,WSDL version 420,2013-11-18 03:03:00,
2013-11-17 22:08:00,58.1,51.6,-100.00,West,261,3.1,4.9,79,0.00,,,0.00,WSDL version 420,2013-11-18 03:08:00,
2013-11-17 22:16:00,57.9,51.3,28.70,SW,221,3.7,4.9,79,0.00,,,0.00,WSDL version 420,2013-11-18 03:16:00,
2013-11-17 22:22:00,57.9,51.5,28.67,WSW,253,2.4,4.7,79,-99.99,,,-99.99,WSDL version 420,2013-11-18 03:22:00,
2013-11-17 22:28:00,57.9,51.5,-100.00,WSW,248,1.9,4.0,79,-99.99,,,-99.99,WSDL version 420,2013-11-18 03:28:00,
2013-11-17 22:35:00,58.1,51.3,28.67,WSW,248,2.3,7.6,78,0.00,,,0.00,WSDL version 420,2013-11-18 03:35:00,
2013-11-17 22:41:00,58.1,51.3,-100.00,SW,234,2.8,4.3,78,0.00,,,0.00,WSDL version 420,2013-11-18 03:41:00,
2013-11-17 22:49:00,58.5,51.3,-100.00,WSW,239,2.9,7.4,77,-99.99,,,-99.99,WSDL version 420,2013-11-18 03:49:00,
2013-11-17 22:58:00,58.8,51.3,-100.00,West,263,2.8,6.0,76,0.00,,,0.00,WSDL version 420,2013-11-18 03:58:00,
2013-11-17 23:04:00,58.7,51.4,-100.00,SW,230,3.0,6.3,77,0.00,,,0.00,WSDL version 420,2013-11-18 04:04:00,
2013-11-17 23:11:00,58.3,52.0,28.67,SW,225,3.0,6.3,81,0.04,,,0.04,WSDL version 420,2013-11-18 04:11:00,
2013-11-17 23:23:00,57.6,52.6,-100.00,WSW,248,2.2,6.0,83,0.04,,,0.04,WSDL version 420,2013-11-18 04:23:00,
2013-11-17 23:29:00,57.4,52.7,28.64,SSW,212,2.1,4.3,84,0.04,,,0.04,WSDL version 420,2013-11-18 04:29:00,
2013-11-17 23:35:00,57.0,52.6,28.64,SW,228,0.7,2.9,86,0.04,,,0.04,WSDL version 420,2013-11-18 04:35:00,
2013-11-17 23:41:00,56.8,52.6,-100.00,SSW,212,1.1,3.8,86,0.04,,,0.04,WSDL version 420,2013-11-18 04:41:00,
2013-11-17 23:47:00,56.7,52.5,28.64,SSW,203,1.0,3.8,87,0.04,,,0.04,WSDL version 420,2013-11-18 04:47:00,
2013-11-17 23:52:00,56.5,52.6,-100.00,WSW,241,0.9,2.5,87,0.04,,,0.04,WSDL version 420,2013-11-18 04:52:00,
2013-11-17 23:58:00,56.5,52.6,28.64,SSW,197,0.0,3.6,87,0.04,,,0.00,WSDL version 420,2013-11-18 04:58:00,